EZS1529 LSGG-EBBR
Flight info
| Callsign | EZS1529 |
|---|---|
| Flight time | 0h 54m |
| Altitude | 30000 |
| Route | DIPIR V25 ARBOS DCT PENDU DCT EPL DCT ROUSY DCT BATTY |
| Aircraft | A320/M-SDE3FGHIRWY/LB1 |
Departure
| Time | 2026-05-04 12:22 |
|---|---|
| Airport | Geneva International Airport (LSGG) |
Arrival
| Time | 2026-05-04 13:16 |
|---|---|
| Airport | Brussels Airport (EBBR) |
| Time | Latitude | Longitude | Altitude | Speed | Heading |
|---|---|---|---|---|---|
| 2026-05-04 10:56 | 46.23032 | 6.10570 | 1398 ft | 0 kts | 136° |
| 2026-05-04 12:02 | 46.23053 | 6.10493 | 1397 ft | 4 kts | 45° |
| 2026-05-04 12:03 | 46.23042 | 6.10477 | 1402 ft | 0 kts | 45° |
| 2026-05-04 12:09 | 46.23053 | 6.10493 | 1403 ft | 4 kts | 45° |
| 2026-05-04 12:10 | 46.23073 | 6.10522 | 1400 ft | 2 kts | 45° |
| 2026-05-04 12:10 | 46.23085 | 6.10540 | 1402 ft | 5 kts | 45° |
| 2026-05-04 12:10 | 46.23111 | 6.10578 | 1401 ft | 7 kts | 45° |
| 2026-05-04 12:10 | 46.23148 | 6.10632 | 1399 ft | 9 kts | 45° |
| 2026-05-04 12:11 | 46.23192 | 6.10697 | 1398 ft | 10 kts | 45° |
| 2026-05-04 12:11 | 46.23237 | 6.10761 | 1393 ft | 6 kts | 38° |
| 2026-05-04 12:11 | 46.23297 | 6.10792 | 1393 ft | 12 kts | 15° |
| 2026-05-04 12:11 | 46.23370 | 6.10865 | 1397 ft | 13 kts | 45° |
| 2026-05-04 12:12 | 46.23421 | 6.10940 | 1393 ft | 8 kts | 45° |
| 2026-05-04 12:12 | 46.23452 | 6.10987 | 1398 ft | 7 kts | 45° |
| 2026-05-04 12:12 | 46.23464 | 6.11003 | 1396 ft | 8 kts | 45° |
| 2026-05-04 12:12 | 46.23477 | 6.11023 | 1400 ft | 5 kts | 45° |
| 2026-05-04 12:13 | 46.23507 | 6.11067 | 1404 ft | 8 kts | 45° |
| 2026-05-04 12:14 | 46.23928 | 6.11407 | 1373 ft | 13 kts | 45° |
| 2026-05-04 12:15 | 46.23989 | 6.11495 | 1372 ft | 12 kts | 45° |
| 2026-05-04 12:15 | 46.24053 | 6.11589 | 1369 ft | 15 kts | 45° |
| 2026-05-04 12:15 | 46.24138 | 6.11716 | 1366 ft | 20 kts | 46° |
| 2026-05-04 12:15 | 46.24242 | 6.11866 | 1362 ft | 22 kts | 45° |
| 2026-05-04 12:16 | 46.24336 | 6.12005 | 1364 ft | 16 kts | 46° |
| 2026-05-04 12:16 | 46.24393 | 6.12090 | 1368 ft | 9 kts | 45° |
| 2026-05-04 12:16 | 46.24460 | 6.12187 | 1371 ft | 17 kts | 45° |
| 2026-05-04 12:16 | 46.24529 | 6.12291 | 1372 ft | 13 kts | 46° |
| 2026-05-04 12:17 | 46.24617 | 6.12418 | 1369 ft | 20 kts | 45° |
| 2026-05-04 12:17 | 46.24711 | 6.12556 | 1363 ft | 19 kts | 46° |
| 2026-05-04 12:17 | 46.24804 | 6.12670 | 1362 ft | 15 kts | 24° |
| 2026-05-04 12:17 | 46.24883 | 6.12705 | 1365 ft | 9 kts | 16° |
| 2026-05-04 12:18 | 46.24914 | 6.12717 | 1366 ft | 0 kts | 16° |
| 2026-05-04 12:20 | 46.24921 | 6.12721 | 1365 ft | 4 kts | 16° |
| 2026-05-04 12:21 | 46.24973 | 6.12738 | 1369 ft | 11 kts | 2° |
| 2026-05-04 12:21 | 46.25008 | 6.12663 | 1372 ft | 11 kts | 239° |
| 2026-05-04 12:21 | 46.24997 | 6.12645 | 1372 ft | 1 kts | 227° |
| 2026-05-04 12:21 | 46.24987 | 6.12631 | 1372 ft | 3 kts | 225° |
| 2026-05-04 12:22 | 46.24891 | 6.12488 | 1372 ft | 53 kts | 226° |
| 2026-05-04 12:22 | 46.24475 | 6.11877 | 1372 ft | 115 kts | 225° |
| 2026-05-04 12:22 | 46.23795 | 6.10875 | 1426 ft | 158 kts | 226° |
| 2026-05-04 12:22 | 46.23038 | 6.09756 | 2109 ft | 156 kts | 226° |
| 2026-05-04 12:23 | 46.22262 | 6.08600 | 2630 ft | 169 kts | 226° |
| 2026-05-04 12:23 | 46.21396 | 6.07317 | 2997 ft | 189 kts | 224° |
| 2026-05-04 12:23 | 46.20412 | 6.05875 | 3249 ft | 216 kts | 224° |
| 2026-05-04 12:23 | 46.19301 | 6.04273 | 3716 ft | 238 kts | 223° |
| 2026-05-04 12:24 | 46.18092 | 6.02525 | 4296 ft | 255 kts | 224° |
| 2026-05-04 12:24 | 46.16832 | 6.00689 | 5206 ft | 259 kts | 223° |
| 2026-05-04 12:24 | 46.15572 | 5.98839 | 6188 ft | 260 kts | 224° |
| 2026-05-04 12:24 | 46.14318 | 5.96946 | 7190 ft | 261 kts | 227° |
| 2026-05-04 12:25 | 46.13452 | 5.94654 | 8195 ft | 267 kts | 253° |
| 2026-05-04 12:25 | 46.13413 | 5.91947 | 9163 ft | 278 kts | 279° |
| 2026-05-04 12:25 | 46.14252 | 5.89405 | 10073 ft | 289 kts | 309° |
| 2026-05-04 12:25 | 46.15859 | 5.87644 | 10911 ft | 298 kts | 335° |
| 2026-05-04 12:26 | 46.17916 | 5.86825 | 11353 ft | 320 kts | 345° |
| 2026-05-04 12:26 | 46.18402 | 5.86674 | 11414 ft | 325 kts | 346° |
| 2026-05-04 12:26 | 46.19660 | 5.86296 | 11550 ft | 338 kts | 346° |
| 2026-05-04 12:26 | 46.22024 | 5.85631 | 12011 ft | 353 kts | 347° |
| 2026-05-04 12:27 | 46.24465 | 5.84974 | 12728 ft | 359 kts | 347° |
| 2026-05-04 12:27 | 46.26936 | 5.84309 | 12959 ft | 379 kts | 347° |
| 2026-05-04 12:27 | 46.29529 | 5.83594 | 13799 ft | 376 kts | 347° |
| 2026-05-04 12:27 | 46.32086 | 5.82867 | 14685 ft | 374 kts | 346° |
| 2026-05-04 12:28 | 46.34646 | 5.82122 | 15340 ft | 377 kts | 346° |
| 2026-05-04 12:28 | 46.37232 | 5.81364 | 15951 ft | 382 kts | 346° |
| 2026-05-04 12:28 | 46.39856 | 5.80714 | 16541 ft | 388 kts | 354° |
| 2026-05-04 12:28 | 46.42579 | 5.80878 | 17135 ft | 394 kts | 4° |
| 2026-05-04 12:29 | 46.45317 | 5.81218 | 17789 ft | 397 kts | 4° |
| 2026-05-04 12:29 | 46.48082 | 5.81578 | 18405 ft | 401 kts | 4° |
| 2026-05-04 12:29 | 46.50872 | 5.81947 | 18936 ft | 405 kts | 4° |
| 2026-05-04 12:29 | 46.53690 | 5.82320 | 19483 ft | 409 kts | 4° |
| 2026-05-04 12:30 | 46.56533 | 5.82694 | 20048 ft | 413 kts | 4° |
| 2026-05-04 12:30 | 46.59408 | 5.83070 | 20584 ft | 417 kts | 4° |
| 2026-05-04 12:30 | 46.62279 | 5.83440 | 21055 ft | 421 kts | 4° |
| 2026-05-04 12:30 | 46.65205 | 5.83813 | 21541 ft | 424 kts | 4° |
| 2026-05-04 12:31 | 46.68160 | 5.84189 | 22024 ft | 428 kts | 4° |
| 2026-05-04 12:31 | 46.71137 | 5.84566 | 22512 ft | 431 kts | 4° |
| 2026-05-04 12:31 | 46.74137 | 5.84948 | 22981 ft | 435 kts | 4° |
| 2026-05-04 12:31 | 46.77160 | 5.85337 | 23440 ft | 438 kts | 4° |
| 2026-05-04 12:32 | 46.80212 | 5.85734 | 23846 ft | 442 kts | 4° |
| 2026-05-04 12:32 | 46.86363 | 5.86540 | 24639 ft | 447 kts | 4° |
| 2026-05-04 12:32 | 46.89470 | 5.86946 | 25047 ft | 450 kts | 4° |
| 2026-05-04 12:33 | 46.92595 | 5.87357 | 25440 ft | 452 kts | 4° |
| 2026-05-04 12:33 | 46.95746 | 5.87773 | 25868 ft | 456 kts | 4° |
| 2026-05-04 12:33 | 46.98921 | 5.88193 | 26345 ft | 459 kts | 4° |
| 2026-05-04 12:33 | 47.02107 | 5.88611 | 26771 ft | 462 kts | 4° |
| 2026-05-04 12:34 | 47.05276 | 5.89024 | 27132 ft | 464 kts | 4° |
| 2026-05-04 12:34 | 47.08496 | 5.89440 | 27480 ft | 467 kts | 4° |
| 2026-05-04 12:34 | 47.11742 | 5.89857 | 27834 ft | 469 kts | 4° |
| 2026-05-04 12:34 | 47.15002 | 5.90278 | 28182 ft | 472 kts | 4° |
| 2026-05-04 12:35 | 47.18281 | 5.90702 | 28519 ft | 474 kts | 4° |
| 2026-05-04 12:35 | 47.21582 | 5.91136 | 28863 ft | 477 kts | 4° |
| 2026-05-04 12:35 | 47.24895 | 5.91574 | 29198 ft | 480 kts | 4° |
| 2026-05-04 12:35 | 47.28231 | 5.92015 | 29492 ft | 483 kts | 4° |
| 2026-05-04 12:36 | 47.31588 | 5.92458 | 29818 ft | 486 kts | 4° |
| 2026-05-04 12:36 | 47.34962 | 5.92904 | 30005 ft | 486 kts | 4° |
| 2026-05-04 12:36 | 47.38283 | 5.93342 | 30029 ft | 472 kts | 4° |
| 2026-05-04 12:37 | 47.44751 | 5.94202 | 30029 ft | 464 kts | 4° |
| 2026-05-04 12:37 | 47.51129 | 5.95060 | 30029 ft | 463 kts | 4° |
| 2026-05-04 12:38 | 47.57554 | 5.95914 | 30029 ft | 463 kts | 4° |
| 2026-05-04 12:38 | 47.63969 | 5.96763 | 30029 ft | 463 kts | 4° |
| 2026-05-04 12:39 | 47.70388 | 5.97614 | 30025 ft | 463 kts | 3° |
| 2026-05-04 12:39 | 47.76809 | 5.98479 | 30018 ft | 464 kts | 3° |
| 2026-05-04 12:40 | 47.83234 | 5.99349 | 30014 ft | 464 kts | 3° |
| 2026-05-04 12:40 | 47.89621 | 6.00213 | 30014 ft | 464 kts | 3° |
| 2026-05-04 12:41 | 47.96055 | 6.01085 | 30008 ft | 464 kts | 3° |
| 2026-05-04 12:41 | 48.02487 | 6.01954 | 30007 ft | 465 kts | 3° |
| 2026-05-04 12:42 | 48.08928 | 6.02827 | 30022 ft | 465 kts | 2° |
| 2026-05-04 12:42 | 48.15368 | 6.03693 | 30022 ft | 464 kts | 2° |
| 2026-05-04 12:43 | 48.21801 | 6.04571 | 30021 ft | 464 kts | 2° |
| 2026-05-04 12:43 | 48.28189 | 6.05450 | 30023 ft | 464 kts | 2° |
| 2026-05-04 12:44 | 48.34607 | 6.06239 | 30027 ft | 462 kts | 0° |
| 2026-05-04 12:44 | 48.41025 | 6.06562 | 30028 ft | 461 kts | 358° |
| 2026-05-04 12:45 | 48.47439 | 6.06711 | 30017 ft | 460 kts | 358° |
| 2026-05-04 12:45 | 48.53840 | 6.06939 | 30025 ft | 460 kts | 359° |
| 2026-05-04 12:46 | 48.60235 | 6.07263 | 30049 ft | 460 kts | 359° |
| 2026-05-04 12:46 | 48.66620 | 6.07598 | 30034 ft | 459 kts | 359° |
| 2026-05-04 12:47 | 48.72964 | 6.07894 | 30022 ft | 459 kts | 359° |
| 2026-05-04 12:47 | 48.79348 | 6.08190 | 30014 ft | 459 kts | 359° |
| 2026-05-04 12:48 | 48.85732 | 6.08490 | 30011 ft | 459 kts | 359° |
| 2026-05-04 12:48 | 48.92106 | 6.08795 | 30022 ft | 459 kts | 359° |
| 2026-05-04 12:49 | 48.98476 | 6.09109 | 30030 ft | 458 kts | 359° |
| 2026-05-04 12:49 | 49.04844 | 6.09423 | 30028 ft | 457 kts | 359° |
| 2026-05-04 12:50 | 49.11154 | 6.09725 | 30019 ft | 456 kts | 359° |
| 2026-05-04 12:50 | 49.17489 | 6.10022 | 30016 ft | 455 kts | 359° |
| 2026-05-04 12:51 | 49.23821 | 6.10325 | 30003 ft | 455 kts | 359° |
| 2026-05-04 12:51 | 49.30148 | 6.10637 | 30003 ft | 455 kts | 359° |
| 2026-05-04 12:52 | 49.36471 | 6.10956 | 30019 ft | 455 kts | 359° |
| 2026-05-04 12:52 | 49.42789 | 6.11272 | 30027 ft | 454 kts | 359° |
| 2026-05-04 12:53 | 49.49035 | 6.11201 | 30032 ft | 450 kts | 349° |
| 2026-05-04 12:53 | 49.55219 | 6.09825 | 30031 ft | 449 kts | 348° |
| 2026-05-04 12:54 | 49.61401 | 6.08446 | 30026 ft | 449 kts | 349° |
| 2026-05-04 12:54 | 49.67577 | 6.07074 | 30024 ft | 449 kts | 349° |
| 2026-05-04 12:55 | 49.73752 | 6.05699 | 30022 ft | 448 kts | 348° |
| 2026-05-04 12:55 | 49.79927 | 6.04310 | 30014 ft | 448 kts | 348° |
| 2026-05-04 12:56 | 49.86099 | 6.02914 | 30016 ft | 449 kts | 348° |
| 2026-05-04 12:56 | 49.92227 | 6.01541 | 29796 ft | 445 kts | 348° |
| 2026-05-04 12:56 | 49.95276 | 6.00857 | 29503 ft | 442 kts | 349° |
| 2026-05-04 12:57 | 49.98309 | 6.00174 | 29219 ft | 439 kts | 349° |
| 2026-05-04 12:57 | 50.01342 | 5.99486 | 28508 ft | 443 kts | 349° |
| 2026-05-04 12:57 | 50.04378 | 5.98793 | 27943 ft | 441 kts | 349° |
| 2026-05-04 12:57 | 50.07407 | 5.98107 | 27421 ft | 437 kts | 349° |
| 2026-05-04 12:58 | 50.10407 | 5.97429 | 26888 ft | 434 kts | 349° |
| 2026-05-04 12:58 | 50.13380 | 5.96754 | 26385 ft | 429 kts | 349° |
| 2026-05-04 12:58 | 50.16322 | 5.96084 | 25901 ft | 425 kts | 349° |
| 2026-05-04 12:58 | 50.19236 | 5.95418 | 25389 ft | 422 kts | 349° |
| 2026-05-04 12:59 | 50.22131 | 5.94754 | 24896 ft | 419 kts | 349° |
| 2026-05-04 12:59 | 50.25011 | 5.94094 | 24397 ft | 416 kts | 349° |
| 2026-05-04 12:59 | 50.27825 | 5.93449 | 23904 ft | 414 kts | 348° |
| 2026-05-04 12:59 | 50.30663 | 5.92800 | 23359 ft | 412 kts | 349° |
| 2026-05-04 13:00 | 50.33488 | 5.92154 | 22828 ft | 409 kts | 349° |
| 2026-05-04 13:00 | 50.36296 | 5.91513 | 22324 ft | 406 kts | 349° |
| 2026-05-04 13:00 | 50.39082 | 5.90874 | 21811 ft | 404 kts | 349° |
| 2026-05-04 13:00 | 50.41849 | 5.90236 | 21298 ft | 402 kts | 349° |
| 2026-05-04 13:01 | 50.44610 | 5.89596 | 20785 ft | 400 kts | 349° |
| 2026-05-04 13:01 | 50.47359 | 5.88957 | 20272 ft | 398 kts | 349° |
| 2026-05-04 13:01 | 50.50094 | 5.88320 | 19766 ft | 396 kts | 350° |
| 2026-05-04 13:01 | 50.52815 | 5.87686 | 19259 ft | 395 kts | 350° |
| 2026-05-04 13:02 | 50.55519 | 5.87059 | 18757 ft | 391 kts | 350° |
| 2026-05-04 13:02 | 50.58137 | 5.86457 | 18268 ft | 377 kts | 351° |
| 2026-05-04 13:02 | 50.60681 | 5.85835 | 17763 ft | 362 kts | 346° |
| 2026-05-04 13:02 | 50.62994 | 5.84538 | 17328 ft | 346 kts | 330° |
| 2026-05-04 13:03 | 50.64959 | 5.82416 | 16896 ft | 341 kts | 316° |
| 2026-05-04 13:03 | 50.66517 | 5.79634 | 16473 ft | 337 kts | 302° |
| 2026-05-04 13:03 | 50.67646 | 5.76437 | 16055 ft | 334 kts | 295° |
| 2026-05-04 13:03 | 50.68699 | 5.73171 | 15641 ft | 333 kts | 295° |
| 2026-05-04 13:04 | 50.69744 | 5.69919 | 15228 ft | 332 kts | 295° |
| 2026-05-04 13:04 | 50.70784 | 5.66670 | 14822 ft | 332 kts | 295° |
| 2026-05-04 13:04 | 50.71826 | 5.63410 | 14418 ft | 332 kts | 295° |
| 2026-05-04 13:04 | 50.72868 | 5.60154 | 13991 ft | 332 kts | 296° |
| 2026-05-04 13:05 | 50.73890 | 5.56957 | 13557 ft | 331 kts | 296° |
| 2026-05-04 13:05 | 50.74925 | 5.53719 | 13125 ft | 329 kts | 296° |
| 2026-05-04 13:05 | 50.75949 | 5.50509 | 12707 ft | 326 kts | 296° |
| 2026-05-04 13:05 | 50.76966 | 5.47326 | 12294 ft | 319 kts | 295° |
| 2026-05-04 13:06 | 50.77949 | 5.44244 | 11884 ft | 312 kts | 295° |
| 2026-05-04 13:06 | 50.78924 | 5.41177 | 11471 ft | 314 kts | 295° |
| 2026-05-04 13:06 | 50.79900 | 5.38096 | 11054 ft | 313 kts | 295° |
| 2026-05-04 13:06 | 50.80872 | 5.35025 | 10640 ft | 312 kts | 296° |
| 2026-05-04 13:07 | 50.81840 | 5.31967 | 10231 ft | 310 kts | 296° |
| 2026-05-04 13:07 | 50.82794 | 5.28957 | 10056 ft | 300 kts | 296° |
| 2026-05-04 13:07 | 50.83715 | 5.26047 | 9855 ft | 292 kts | 296° |
| 2026-05-04 13:07 | 50.84605 | 5.23216 | 9466 ft | 291 kts | 296° |
| 2026-05-04 13:08 | 50.85505 | 5.20351 | 9052 ft | 290 kts | 295° |
| 2026-05-04 13:08 | 50.86393 | 5.17520 | 8625 ft | 289 kts | 295° |
| 2026-05-04 13:08 | 50.87280 | 5.14692 | 8265 ft | 285 kts | 295° |
| 2026-05-04 13:08 | 50.87909 | 5.12858 | 7981 ft | 285 kts | 302° |
| 2026-05-04 13:09 | 50.89325 | 5.09381 | 7326 ft | 278 kts | 302° |
| 2026-05-04 13:09 | 50.90014 | 5.07671 | 7039 ft | 277 kts | 301° |
| 2026-05-04 13:09 | 50.91386 | 5.04241 | 6479 ft | 275 kts | 302° |
| 2026-05-04 13:09 | 50.92058 | 5.02551 | 6182 ft | 274 kts | 302° |
| 2026-05-04 13:10 | 50.93072 | 5.00008 | 5769 ft | 272 kts | 302° |
| 2026-05-04 13:10 | 50.94082 | 4.97482 | 5360 ft | 271 kts | 302° |
| 2026-05-04 13:10 | 50.95088 | 4.94969 | 4952 ft | 270 kts | 302° |
| 2026-05-04 13:10 | 50.96080 | 4.92486 | 4735 ft | 260 kts | 301° |
| 2026-05-04 13:11 | 50.97009 | 4.90112 | 4616 ft | 247 kts | 296° |
| 2026-05-04 13:11 | 50.97499 | 4.87597 | 4483 ft | 234 kts | 275° |
| 2026-05-04 13:11 | 50.97377 | 4.85099 | 4321 ft | 225 kts | 252° |
| 2026-05-04 13:11 | 50.96869 | 4.82802 | 4128 ft | 222 kts | 249° |
| 2026-05-04 13:12 | 50.96345 | 4.80522 | 3922 ft | 217 kts | 249° |
| 2026-05-04 13:12 | 50.95831 | 4.78270 | 3597 ft | 217 kts | 250° |
| 2026-05-04 13:12 | 50.95330 | 4.76069 | 3307 ft | 209 kts | 250° |
| 2026-05-04 13:12 | 50.94843 | 4.73934 | 3028 ft | 202 kts | 250° |
| 2026-05-04 13:13 | 50.94373 | 4.71872 | 2764 ft | 197 kts | 250° |
| 2026-05-04 13:13 | 50.93914 | 4.69863 | 2516 ft | 190 kts | 250° |
| 2026-05-04 13:13 | 50.93475 | 4.67942 | 2261 ft | 181 kts | 250° |
| 2026-05-04 13:13 | 50.93055 | 4.66106 | 2020 ft | 173 kts | 251° |
| 2026-05-04 13:14 | 50.92657 | 4.64368 | 1804 ft | 163 kts | 250° |
| 2026-05-04 13:14 | 50.92281 | 4.62727 | 1586 ft | 156 kts | 250° |
| 2026-05-04 13:14 | 50.91919 | 4.61149 | 1382 ft | 149 kts | 251° |
| 2026-05-04 13:14 | 50.91567 | 4.59615 | 1177 ft | 147 kts | 250° |
| 2026-05-04 13:15 | 50.91219 | 4.58097 | 973 ft | 147 kts | 250° |
| 2026-05-04 13:15 | 50.90869 | 4.56576 | 773 ft | 146 kts | 250° |
| 2026-05-04 13:15 | 50.90521 | 4.55061 | 579 ft | 146 kts | 250° |
| 2026-05-04 13:15 | 50.90172 | 4.53546 | 386 ft | 147 kts | 250° |
| 2026-05-04 13:16 | 50.89830 | 4.52048 | 207 ft | 146 kts | 250° |
| 2026-05-04 13:16 | 50.89511 | 4.50663 | 175 ft | 116 kts | 249° |
| 2026-05-04 13:16 | 50.89294 | 4.49723 | 177 ft | 66 kts | 250° |
| 2026-05-04 13:16 | 50.89181 | 4.49237 | 176 ft | 37 kts | 249° |
| 2026-05-04 13:17 | 50.89184 | 4.49032 | 176 ft | 14 kts | 8° |
| 2026-05-04 13:17 | 50.89286 | 4.49075 | 169 ft | 18 kts | 15° |
| 2026-05-04 13:17 | 50.89344 | 4.49099 | 166 ft | 0 kts | 14° |
| 2026-05-04 13:17 | 50.89346 | 4.49099 | 166 ft | 1 kts | 14° |
| 2026-05-04 13:18 | 50.89357 | 4.49104 | 166 ft | 2 kts | 14° |
| 2026-05-04 13:18 | 50.89386 | 4.49116 | 165 ft | 8 kts | 14° |
| 2026-05-04 13:18 | 50.89472 | 4.49149 | 161 ft | 17 kts | 13° |
| 2026-05-04 13:18 | 50.89605 | 4.49225 | 155 ft | 23 kts | 39° |
| 2026-05-04 13:19 | 50.89770 | 4.49313 | 145 ft | 28 kts | 14° |
| 2026-05-04 13:19 | 50.89777 | 4.49316 | 145 ft | 28 kts | 14° |
| 2026-05-04 13:19 | 50.89887 | 4.49360 | 138 ft | 31 kts | 14° |
| 2026-05-04 13:19 | 50.90111 | 4.49452 | 130 ft | 34 kts | 15° |
| 2026-05-04 13:20 | 50.90347 | 4.49548 | 122 ft | 36 kts | 14° |
| 2026-05-04 13:20 | 50.90591 | 4.49647 | 122 ft | 36 kts | 14° |
| 2026-05-04 13:20 | 50.90768 | 4.49716 | 124 ft | 17 kts | 5° |
| 2026-05-04 13:20 | 50.90855 | 4.49602 | 122 ft | 18 kts | 295° |
| 2026-05-04 13:21 | 50.90821 | 4.49413 | 120 ft | 19 kts | 244° |
| 2026-05-04 13:21 | 50.90763 | 4.49206 | 122 ft | 22 kts | 244° |
| 2026-05-04 13:21 | 50.90694 | 4.48974 | 118 ft | 25 kts | 245° |
| 2026-05-04 13:21 | 50.90621 | 4.48718 | 117 ft | 26 kts | 245° |
| 2026-05-04 13:22 | 50.90553 | 4.48487 | 120 ft | 23 kts | 244° |
| 2026-05-04 13:22 | 50.90485 | 4.48251 | 119 ft | 23 kts | 246° |
| 2026-05-04 13:22 | 50.90426 | 4.48058 | 120 ft | 10 kts | 233° |
| 2026-05-04 13:22 | 50.90372 | 4.48040 | 120 ft | 0 kts | 178° |
| 2026-05-04 13:23 | 50.90369 | 4.48040 | 120 ft | 3 kts | 179° |
| 2026-05-04 13:23 | 50.90340 | 4.48014 | 119 ft | 5 kts | 230° |
| 2026-05-04 13:23 | 50.90322 | 4.47958 | 118 ft | 10 kts | 245° |
| 2026-05-04 13:24 | 50.90298 | 4.47874 | 120 ft | 0 kts | 245° |
| 2026-05-04 13:24 | 50.90299 | 4.47879 | 119 ft | 4 kts | 245° |
| 2026-05-04 13:24 | 50.90316 | 4.47937 | 121 ft | 1 kts | 245° |
| 2026-05-04 13:25 | 50.90304 | 4.47910 | 118 ft | 3 kts | 218° |
| 2026-05-04 13:25 | 50.90285 | 4.47912 | 118 ft | 4 kts | 160° |
| 2026-05-04 13:25 | 50.90256 | 4.47932 | 119 ft | 0 kts | 156° |
| 2026-05-04 13:25 | 50.90249 | 4.47936 | 117 ft | 4 kts | 155° |
| 2026-05-04 13:26 | 50.90232 | 4.47949 | 120 ft | 0 kts | 155° |
| 2026-05-04 13:26 | 50.90229 | 4.47951 | 120 ft | 0 kts | 155° |
| 2026-05-04 13:26 | 50.90231 | 4.47950 | 120 ft | 0 kts | 155° |
| 2026-05-04 13:27 | 50.90230 | 4.47950 | 120 ft | 0 kts | 155° |
| 2026-05-04 13:31 | 50.90230 | 4.47951 | 120 ft | 0 kts | 155° |